Time;durP1;ratioP1;P1;durP2;ratioP2;P2;SDS_P1;SDS_P2;PMS_P1;PMS_P2;Temp;Humidity;BMP_temperature;BMP_pressure;BME280_temperature;BME280_humidity;BME280_pressure;Samples;Min_cycle;Max_cycle;Signal;HPM_P1;HPM_P2
2022/09/29 00:02:01;;;;;;;3.93;2.73;;;9.60;99.90;;;;;;5035546;28;20487;-58
2022/09/29 00:04:29;;;;;;;3.73;2.67;;;9.60;99.90;;;;;;5036120;28;20452;-57
2022/09/29 00:06:56;;;;;;;5.57;3.33;;;9.50;99.90;;;;;;5035425;28;20531;-53
2022/09/29 00:09:23;;;;;;;4.87;3.20;;;9.50;99.90;;;;;;5035530;28;20428;-59
2022/09/29 00:11:54;;;;;;;5.43;3.70;;;9.50;99.90;;;;;;5035993;28;20475;-58
2022/09/29 00:14:21;;;;;;;5.43;3.33;;;9.40;99.90;;;;;;5036180;28;20480;-57
2022/09/29 00:16:47;;;;;;;6.70;3.10;;;9.40;99.90;;;;;;5035761;28;20459;-58
2022/09/29 00:19:14;;;;;;;4.60;3.33;;;9.40;99.90;;;;;;5035209;28;21087;-55
2022/09/29 00:21:42;;;;;;;5.63;4.07;;;9.40;99.90;;;;;;5035448;28;20452;-59
2022/09/29 00:24:09;;;;;;;4.33;3.20;;;9.30;99.90;;;;;;5035470;28;20463;-52
2022/09/29 00:26:36;;;;;;;8.30;3.90;;;9.30;99.90;;;;;;5035556;28;20444;-56
2022/09/29 00:29:03;;;;;;;4.67;3.47;;;9.30;99.90;;;;;;5035101;28;20931;-59
2022/09/29 00:31:33;;;;;;;5.07;3.50;;;9.30;99.90;;;;;;5035294;28;20476;-56
2022/09/29 00:34:03;;;;;;;5.03;3.50;;;9.20;99.90;;;;;;5035227;28;20511;-57
2022/09/29 00:36:29;;;;;;;6.03;3.70;;;9.20;99.90;;;;;;5034844;28;20472;-57
2022/09/29 00:38:59;;;;;;;14.23;3.90;;;9.30;99.90;;;;;;5035363;28;20475;-56
2022/09/29 00:41:28;;;;;;;5.73;3.00;;;9.30;99.90;;;;;;5034763;28;20956;-58
2022/09/29 00:43:59;;;;;;;6.30;3.97;;;9.30;99.90;;;;;;5035048;28;20464;-59
2022/09/29 00:46:32;;;;;;;3.57;3.10;;;9.20;99.90;;;;;;5034839;28;20459;-59
2022/09/29 00:49:04;;;;;;;5.63;3.37;;;9.20;99.90;;;;;;5034715;28;20439;-59
2022/09/29 00:51:34;;;;;;;5.60;4.53;;;9.20;99.90;;;;;;5035122;28;20447;-53
2022/09/29 00:54:03;;;;;;;4.87;3.50;;;9.20;99.90;;;;;;5034806;28;20503;-56
2022/09/29 00:56:31;;;;;;;4.00;3.30;;;9.10;99.90;;;;;;5035152;28;20444;-54
2022/09/29 00:59:02;;;;;;;5.93;3.37;;;9.10;99.90;;;;;;5034544;28;20464;-56
2022/09/29 01:01:33;;;;;;;4.90;3.60;;;9.10;99.90;;;;;;5034807;28;20413;-53
2022/09/29 01:04:03;;;;;;;8.03;4.33;;;9.10;99.90;;;;;;5034599;28;20425;-57
2022/09/29 01:06:35;;;;;;;4.40;3.53;;;9.10;99.90;;;;;;5034800;28;20442;-58
2022/09/29 01:09:08;;;;;;;6.57;4.07;;;9.10;99.90;;;;;;5034140;28;20466;-58
2022/09/29 01:11:35;;;;;;;8.23;4.10;;;9.10;99.90;;;;;;5034566;28;20429;-58
2022/09/29 01:14:06;;;;;;;5.20;3.70;;;9.10;99.90;;;;;;5034610;28;20813;-60
2022/09/29 01:16:38;;;;;;;6.27;3.87;;;9.10;99.90;;;;;;5034647;28;20468;-60
2022/09/29 01:19:09;;;;;;;7.70;3.80;;;9.10;99.90;;;;;;5034689;28;20436;-56
2022/09/29 01:21:50;;;;;;;9.83;3.80;;;9.10;99.90;;;;;;5034176;28;20471;-55
2022/09/29 01:24:50;;;;;;;5.03;3.57;;;9.10;99.90;;;;;;5034537;28;20424;-49
2022/09/29 01:27:30;;;;;;;6.60;3.30;;;9.00;99.90;;;;;;5034509;28;20487;-55
2022/09/29 01:30:11;;;;;;;6.73;3.60;;;9.00;99.90;;;;;;5034410;28;20428;-56
2022/09/29 01:32:52;;;;;;;5.17;3.33;;;9.00;99.90;;;;;;5034267;28;20908;-53
2022/09/29 01:35:30;;;;;;;6.90;4.10;;;8.90;99.90;;;;;;5034137;28;20464;-58
2022/09/29 01:38:08;;;;;;;7.00;3.60;;;9.00;99.90;;;;;;5033266;28;20444;-53
2022/09/29 01:40:44;;;;;;;6.80;4.40;;;8.90;99.90;;;;;;5034329;28;20439;-57
2022/09/29 01:43:17;;;;;;;7.30;3.73;;;8.90;99.90;;;;;;5034236;28;20452;-58
2022/09/29 01:45:50;;;;;;;4.00;3.43;;;8.90;99.90;;;;;;5033916;28;20804;-57
2022/09/29 01:48:22;;;;;;;6.00;4.30;;;8.90;99.90;;;;;;5034003;28;20451;-58
2022/09/29 01:50:53;;;;;;;5.13;3.27;;;8.90;99.90;;;;;;5034106;28;20445;-58
2022/09/29 01:53:25;;;;;;;10.60;4.73;;;8.80;99.90;;;;;;5034476;28;20452;-59
2022/09/29 01:55:56;;;;;;;4.50;3.27;;;8.90;99.90;;;;;;5034544;28;20471;-53
2022/09/29 01:58:27;;;;;;;4.87;3.30;;;8.90;99.90;;;;;;5034521;28;20909;-63
2022/09/29 02:01:02;;;;;;;6.30;3.30;;;8.90;99.90;;;;;;5034416;28;20436;-58
2022/09/29 02:03:35;;;;;;;5.20;3.30;;;8.90;99.90;;;;;;5034070;28;20467;-56
2022/09/29 02:06:07;;;;;;;8.80;4.73;;;8.90;99.90;;;;;;5034306;28;20447;-55
2022/09/29 02:08:43;;;;;;;4.50;3.53;;;8.90;99.90;;;;;;5034102;28;20915;-50
2022/09/29 02:11:12;;;;;;;4.80;3.50;;;8.90;99.90;;;;;;5034539;28;20447;-56
2022/09/29 02:13:44;;;;;;;7.33;4.00;;;8.90;99.90;;;;;;5034510;28;20452;-63
2022/09/29 02:16:13;;;;;;;4.20;3.60;;;9.00;99.90;;;;;;5034260;28;20491;-53
2022/09/29 02:18:50;;;;;;;8.40;4.27;;;9.00;99.90;;;;;;5034132;28;20456;-60
2022/09/29 02:21:16;;;;;;;4.70;3.73;;;8.90;99.90;;;;;;5036318;28;20869;-53
2022/09/29 02:23:43;;;;;;;4.77;3.40;;;8.90;99.90;;;;;;5037854;28;20424;-53
2022/09/29 02:26:12;;;;;;;5.90;3.50;;;9.00;99.90;;;;;;5037807;28;20440;-55
2022/09/29 02:28:42;;;;;;;6.30;4.17;;;9.00;99.90;;;;;;5037527;28;20468;-57
2022/09/29 02:31:09;;;;;;;4.87;3.60;;;9.00;99.90;;;;;;5037790;28;20455;-56
2022/09/29 02:33:37;;;;;;;6.43;3.83;;;9.10;99.90;;;;;;5037554;28;20936;-52
2022/09/29 02:36:18;;;;;;;6.40;3.57;;;9.10;99.90;;;;;;5037688;28;20793;-57
2022/09/29 02:38:53;;;;;;;7.83;4.50;;;9.10;99.90;;;;;;5037576;28;20448;-57
2022/09/29 02:41:39;;;;;;;9.03;4.93;;;9.10;99.90;;;;;;5037347;28;20442;-55
2022/09/29 02:44:25;;;;;;;8.53;3.30;;;9.20;99.90;;;;;;5037217;28;20498;-58
2022/09/29 02:47:27;;;;;;;6.80;3.70;;;9.20;99.90;;;;;;5037134;28;20471;-56
2022/09/29 02:50:15;;;;;;;9.33;4.77;;;9.20;99.90;;;;;;5033826;28;20932;-59
2022/09/29 02:52:49;;;;;;;7.70;4.43;;;9.20;99.90;;;;;;5036730;28;20537;-58
2022/09/29 02:55:20;;;;;;;5.53;4.83;;;9.20;99.90;;;;;;5036747;28;20468;-49
2022/09/29 02:57:54;;;;;;;9.87;4.83;;;9.20;99.90;;;;;;5036869;28;20899;-55
2022/09/29 03:00:21;;;;;;;9.10;4.70;;;9.20;99.90;;;;;;5037332;28;20767;-56
2022/09/29 03:02:48;;;;;;;10.10;5.03;;;9.20;99.90;;;;;;5036977;28;20455;-52
2022/09/29 03:05:17;;;;;;;7.17;4.57;;;9.20;99.90;;;;;;5036871;28;20807;-58
2022/09/29 03:07:48;;;;;;;7.23;4.43;;;9.20;99.90;;;;;;5036715;28;20461;-57
2022/09/29 03:10:17;;;;;;;8.80;5.53;;;9.20;99.90;;;;;;5036849;28;20486;-55
2022/09/29 03:12:43;;;;;;;8.73;4.30;;;9.20;99.90;;;;;;5036891;28;20444;-58
2022/09/29 03:15:11;;;;;;;8.67;4.93;;;9.20;99.90;;;;;;5036914;28;20831;-55
2022/09/29 03:17:39;;;;;;;10.50;5.47;;;9.20;99.90;;;;;;5036572;28;20578;-56
2022/09/29 03:20:07;;;;;;;8.07;5.10;;;9.10;99.90;;;;;;5036676;28;20444;-58
2022/09/29 03:22:34;;;;;;;8.83;5.17;;;9.10;99.90;;;;;;5036372;28;20479;-59
2022/09/29 03:25:02;;;;;;;10.90;6.50;;;9.20;99.90;;;;;;5036679;28;20748;-58
2022/09/29 03:27:29;;;;;;;7.70;4.83;;;9.20;99.90;;;;;;5036295;28;20452;-55
2022/09/29 03:29:55;;;;;;;7.70;4.83;;;9.20;99.90;;;;;;5036622;28;20459;-62
2022/09/29 03:32:22;;;;;;;10.13;5.10;;;9.30;99.90;;;;;;5036886;28;20460;-61
2022/09/29 03:34:49;;;;;;;8.53;5.10;;;9.30;99.90;;;;;;5036769;28;20495;-56
2022/09/29 03:37:16;;;;;;;9.17;5.10;;;9.30;99.90;;;;;;5036145;28;21000;-55
2022/09/29 03:39:43;;;;;;;8.73;4.40;;;9.30;99.90;;;;;;5036350;28;20918;-52
2022/09/29 03:42:11;;;;;;;12.87;5.57;;;9.40;99.90;;;;;;5036329;28;20444;-58
2022/09/29 03:44:38;;;;;;;11.17;5.53;;;9.40;99.90;;;;;;5036341;28;20456;-50
2022/09/29 03:47:05;;;;;;;8.00;4.90;;;9.40;99.90;;;;;;5035730;28;20483;-57
2022/09/29 03:49:31;;;;;;;9.27;4.90;;;9.40;99.90;;;;;;5036143;28;20452;-54
2022/09/29 03:51:58;;;;;;;6.93;5.30;;;9.40;99.90;;;;;;5036180;28;20455;-53
2022/09/29 03:54:26;;;;;;;7.80;5.50;;;9.40;99.90;;;;;;5036084;28;20471;-52
2022/09/29 03:56:53;;;;;;;11.20;5.53;;;9.50;99.90;;;;;;5036006;28;20775;-58
2022/09/29 03:59:22;;;;;;;9.60;5.77;;;9.50;99.90;;;;;;5035975;28;20468;-58
2022/09/29 04:01:49;;;;;;;8.43;4.70;;;9.50;99.90;;;;;;5035923;28;20460;-57
2022/09/29 04:04:19;;;;;;;11.23;6.23;;;9.50;99.90;;;;;;5035627;28;20954;-54
2022/09/29 04:06:49;;;;;;;10.73;5.70;;;9.60;99.90;;;;;;5035989;28;20450;-57
2022/09/29 04:09:15;;;;;;;10.50;6.00;;;9.60;99.90;;;;;;5035818;28;20446;-60
2022/09/29 04:11:42;;;;;;;9.67;6.67;;;9.60;99.90;;;;;;5035366;28;20478;-56
2022/09/29 04:14:09;;;;;;;13.70;6.17;;;9.60;99.90;;;;;;5035627;28;20447;-58
2022/09/29 04:16:37;;;;;;;11.83;6.23;;;9.60;99.90;;;;;;5035486;28;20582;-58
2022/09/29 04:19:07;;;;;;;7.03;4.80;;;9.60;99.90;;;;;;5035375;28;20450;-59
2022/09/29 04:21:34;;;;;;;6.23;4.70;;;9.60;99.90;;;;;;5035739;28;20475;-58
2022/09/29 04:24:01;;;;;;;11.60;6.67;;;9.50;99.90;;;;;;5035489;28;20468;-59
2022/09/29 04:26:28;;;;;;;10.10;5.87;;;9.70;99.90;;;;;;5035792;28;20440;-57
2022/09/29 04:28:56;;;;;;;14.27;6.77;;;9.60;99.90;;;;;;5035562;28;20495;-58
2022/09/29 04:31:22;;;;;;;11.17;6.23;;;9.60;99.90;;;;;;5035582;28;20453;-59
2022/09/29 04:33:51;;;;;;;12.43;5.67;;;9.60;99.90;;;;;;5035246;28;20448;-56
2022/09/29 04:36:17;;;;;;;7.80;5.53;;;9.60;99.90;;;;;;5034760;28;20488;-51
2022/09/29 04:38:49;;;;;;;8.97;5.77;;;9.70;99.90;;;;;;5035241;28;20444;-60
2022/09/29 04:41:16;;;;;;;10.40;4.80;;;9.70;99.90;;;;;;5035116;28;20959;-52
2022/09/29 04:43:45;;;;;;;12.60;5.60;;;9.60;99.90;;;;;;5034382;28;20482;-54
2022/09/29 04:46:13;;;;;;;11.13;5.60;;;9.60;99.90;;;;;;5035239;28;20456;-54
2022/09/29 04:48:41;;;;;;;8.87;5.30;;;9.60;99.90;;;;;;5034989;28;20504;-59
2022/09/29 04:51:09;;;;;;;8.47;4.83;;;9.70;99.90;;;;;;5035204;28;20476;-57
2022/09/29 04:53:37;;;;;;;9.73;4.97;;;9.70;99.90;;;;;;5034686;28;20480;-56
2022/09/29 04:56:10;;;;;;;6.93;4.87;;;9.70;99.90;;;;;;5034676;28;20487;-57
2022/09/29 04:58:37;;;;;;;9.23;5.60;;;9.70;99.90;;;;;;5034534;28;20452;-58
2022/09/29 05:01:08;;;;;;;9.80;5.17;;;9.70;99.90;;;;;;5034382;28;20456;-58
2022/09/29 05:03:38;;;;;;;8.77;4.97;;;9.70;99.90;;;;;;5034868;28;20758;-53
2022/09/29 05:06:05;;;;;;;9.53;5.37;;;9.70;99.90;;;;;;5034688;28;20487;-57
2022/09/29 05:08:33;;;;;;;9.20;4.63;;;9.70;99.90;;;;;;5034848;28;20506;-52
2022/09/29 05:11:04;;;;;;;8.37;5.20;;;9.70;99.90;;;;;;5034695;28;20801;-59
2022/09/29 05:13:30;;;;;;;11.57;6.53;;;9.70;99.90;;;;;;5034781;28;20924;-56
2022/09/29 05:15:58;;;;;;;9.07;4.70;;;9.70;99.90;;;;;;5036104;28;20781;-59
2022/09/29 05:18:24;;;;;;;10.47;5.80;;;9.70;99.90;;;;;;5038017;28;20486;-60
2022/09/29 05:20:52;;;;;;;10.50;5.40;;;9.80;99.90;;;;;;5037302;28;20448;-58
2022/09/29 05:23:19;;;;;;;10.17;6.17;;;9.70;99.90;;;;;;5037803;28;20444;-58
2022/09/29 05:25:47;;;;;;;10.07;5.67;;;9.70;99.90;;;;;;5027391;28;20449;-57
2022/09/29 05:28:15;;;;;;;8.33;4.83;;;9.70;99.90;;;;;;5014581;28;20472;-56
2022/09/29 05:30:42;;;;;;;7.50;5.20;;;9.70;99.90;;;;;;5014818;28;20571;-53
2022/09/29 05:33:09;;;;;;;7.00;4.70;;;9.70;99.90;;;;;;5015019;28;20548;-60
2022/09/29 05:35:36;;;;;;;9.07;5.50;;;9.70;99.90;;;;;;5014496;28;20485;-55
2022/09/29 05:38:03;;;;;;;6.77;4.17;;;9.70;99.90;;;;;;5014712;28;20449;-59
2022/09/29 05:40:29;;;;;;;11.00;5.67;;;9.70;99.90;;;;;;5014702;28;20460;-56
2022/09/29 05:42:59;;;;;;;7.00;4.97;;;9.70;99.90;;;;;;5016082;28;20803;-59
2022/09/29 05:45:25;;;;;;;10.00;6.87;;;9.70;99.90;;;;;;5026293;28;20476;-52
2022/09/29 05:47:53;;;;;;;8.80;4.97;;;9.70;99.90;;;;;;5028209;28;20449;-58
2022/09/29 05:50:20;;;;;;;10.13;6.03;;;9.80;99.90;;;;;;5025393;28;20484;-36
2022/09/29 05:52:48;;;;;;;9.90;5.23;;;9.80;99.90;;;;;;5045984;28;20460;-50
2022/09/29 05:55:15;;;;;;;14.83;5.53;;;9.80;99.90;;;;;;5043802;28;20952;-51
2022/09/29 05:57:42;;;;;;;11.10;6.37;;;9.90;99.90;;;;;;5043338;28;20482;-56
2022/09/29 06:00:11;;;;;;;11.80;5.90;;;9.90;99.90;;;;;;5043694;28;20448;-57
2022/09/29 06:02:38;;;;;;;10.37;5.97;;;9.90;99.90;;;;;;5042630;28;20455;-57
2022/09/29 06:05:05;;;;;;;12.30;7.40;;;9.90;99.90;;;;;;5041210;28;20845;-58
2022/09/29 06:07:32;;;;;;;9.27;5.13;;;10.00;99.90;;;;;;5041056;28;20482;-57
2022/09/29 06:09:59;;;;;;;12.03;5.63;;;10.00;99.90;;;;;;5040788;28;20535;-56
2022/09/29 06:12:26;;;;;;;12.87;5.33;;;10.00;99.90;;;;;;5040565;28;20448;-53
2022/09/29 06:14:52;;;;;;;11.37;7.07;;;10.00;99.90;;;;;;5041062;28;20766;-57
2022/09/29 06:17:20;;;;;;;13.90;6.90;;;10.10;99.90;;;;;;5042721;28;20785;-59
2022/09/29 06:19:47;;;;;;;8.23;5.57;;;10.10;99.90;;;;;;5043213;28;20467;-59
2022/09/29 06:22:14;;;;;;;14.60;7.60;;;10.10;99.90;;;;;;5043053;28;20460;-57
2022/09/29 06:24:41;;;;;;;9.87;5.60;;;10.10;99.90;;;;;;5043058;28;20799;-51
2022/09/29 06:27:08;;;;;;;16.00;7.83;;;10.10;99.90;;;;;;5042057;28;20436;-57
2022/09/29 06:29:35;;;;;;;12.50;6.63;;;10.00;99.90;;;;;;5042587;28;20852;-55
2022/09/29 06:32:02;;;;;;;16.90;8.33;;;10.00;99.90;;;;;;5042952;28;20551;-50
2022/09/29 06:34:30;;;;;;;10.80;6.03;;;10.00;99.90;;;;;;5042470;28;20939;-54
2022/09/29 06:39:41;;;;;;;11.40;5.97;;;10.00;99.90;;;;;;5043104;28;20420;-56
2022/09/29 06:42:08;;;;;;;10.90;6.30;;;9.90;99.90;;;;;;5043213;28;20447;-52
2022/09/29 06:44:34;;;;;;;11.10;7.70;;;9.90;99.90;;;;;;5043038;28;20484;-57
2022/09/29 06:47:01;;;;;;;13.77;6.83;;;10.00;99.90;;;;;;5043151;28;20463;-57
2022/09/29 06:49:30;;;;;;;10.27;6.80;;;10.00;99.90;;;;;;5043604;28;20468;-54
2022/09/29 06:51:56;;;;;;;14.27;7.60;;;9.90;99.90;;;;;;5042465;28;20452;-55
2022/09/29 06:54:24;;;;;;;16.73;7.17;;;9.90;99.90;;;;;;5042850;28;20440;-49
2022/09/29 06:56:52;;;;;;;12.43;6.37;;;10.00;99.90;;;;;;5041795;28;20514;-53
2022/09/29 06:59:19;;;;;;;11.27;6.23;;;10.00;99.90;;;;;;5042501;28;20440;-58
2022/09/29 07:01:48;;;;;;;18.87;6.93;;;10.10;99.90;;;;;;5042173;28;20486;-57
2022/09/29 07:04:15;;;;;;;15.97;7.87;;;10.30;99.90;;;;;;5043011;28;20475;-54
2022/09/29 07:06:44;;;;;;;11.63;7.17;;;10.40;99.90;;;;;;5042030;28;20448;-55
2022/09/29 07:09:14;;;;;;;11.80;7.20;;;10.50;99.90;;;;;;5042718;28;20456;-58
2022/09/29 07:11:44;;;;;;;12.33;7.00;;;10.50;99.90;;;;;;5042231;28;20445;-57
2022/09/29 07:14:10;;;;;;;12.60;8.20;;;10.50;99.90;;;;;;5041639;28;20479;-58
2022/09/29 07:16:37;;;;;;;13.90;7.20;;;10.50;99.90;;;;;;5041477;28;20948;-54
2022/09/29 07:19:04;;;;;;;14.83;7.37;;;10.50;99.90;;;;;;5041691;28;20614;-54
2022/09/29 07:21:31;;;;;;;11.53;7.37;;;10.50;99.90;;;;;;5041811;28;20448;-52
2022/09/29 07:23:59;;;;;;;16.10;7.70;;;10.50;99.90;;;;;;5041224;28;20447;-61
2022/09/29 07:26:26;;;;;;;10.63;7.37;;;10.50;99.90;;;;;;5041675;28;20473;-57
2022/09/29 07:28:53;;;;;;;14.67;8.10;;;10.50;99.90;;;;;;5041955;28;20459;-57
2022/09/29 07:31:21;;;;;;;13.93;7.13;;;10.60;99.90;;;;;;5041640;28;20459;-54
2022/09/29 07:33:49;;;;;;;13.80;7.30;;;10.60;99.90;;;;;;5042110;28;20932;-55
2022/09/29 07:36:58;;;;;;;12.53;6.43;;;10.60;99.90;;;;;;5041290;28;20510;-59
2022/09/29 07:39:26;;;;;;;15.73;9.67;;;10.60;99.90;;;;;;5014436;28;20928;-56
2022/09/29 07:41:53;;;;;;;12.00;6.97;;;10.50;99.90;;;;;;5041045;28;20452;-57
2022/09/29 07:44:20;;;;;;;12.13;6.60;;;10.50;99.90;;;;;;5040935;28;20498;-55
2022/09/29 07:46:48;;;;;;;16.73;8.50;;;10.50;99.90;;;;;;5041134;28;20435;-55
2022/09/29 07:49:15;;;;;;;15.27;8.90;;;10.50;99.90;;;;;;5042091;28;20471;-57
2022/09/29 07:51:46;;;;;;;14.20;8.10;;;10.60;99.90;;;;;;5040605;28;20845;-53
2022/09/29 07:54:13;;;;;;;13.93;7.70;;;10.60;99.90;;;;;;5040919;28;20497;-49
2022/09/29 07:56:41;;;;;;;18.07;9.50;;;10.70;99.90;;;;;;5040595;28;20499;-53
2022/09/29 07:59:10;;;;;;;14.67;7.60;;;10.80;99.90;;;;;;5040952;28;20851;-58
2022/09/29 08:01:37;;;;;;;17.33;8.27;;;10.80;99.90;;;;;;5040492;28;20483;-53
2022/09/29 08:04:04;;;;;;;21.83;8.50;;;10.90;99.90;;;;;;5040375;28;20448;-58
2022/09/29 08:06:31;;;;;;;12.30;7.00;;;10.90;99.90;;;;;;5040394;28;20436;-58
2022/09/29 08:09:40;;;;;;;14.80;8.23;;;11.00;99.90;;;;;;5040238;28;20476;-53
2022/09/29 08:12:08;;;;;;;13.73;8.20;;;11.10;99.90;;;;;;5027833;28;20527;-52
2022/09/29 08:14:37;;;;;;;13.00;8.00;;;11.00;99.90;;;;;;5040008;28;20486;-55
2022/09/29 08:17:04;;;;;;;13.77;8.77;;;11.10;99.90;;;;;;5039795;28;20479;-58
2022/09/29 08:19:31;;;;;;;14.13;8.00;;;11.20;99.90;;;;;;5039774;28;20444;-58
2022/09/29 08:21:57;;;;;;;21.07;9.73;;;11.20;99.90;;;;;;5040020;28;20471;-54
2022/09/29 08:24:24;;;;;;;17.40;8.67;;;11.30;99.90;;;;;;5040289;28;20447;-57
2022/09/29 08:26:53;;;;;;;12.30;8.07;;;11.40;99.90;;;;;;5040078;28;20467;-58
2022/09/29 08:29:21;;;;;;;16.63;9.57;;;11.50;99.90;;;;;;5040140;28;20435;-53
2022/09/29 08:31:48;;;;;;;14.53;8.60;;;11.50;99.90;;;;;;5039849;28;20450;-59
2022/09/29 08:34:16;;;;;;;14.00;8.57;;;11.60;99.90;;;;;;5039885;28;21075;-56
2022/09/29 08:36:43;;;;;;;14.03;8.50;;;11.60;99.90;;;;;;5039328;28;21002;-58
2022/09/29 08:39:23;;;;;;;14.60;9.70;;;11.70;99.90;;;;;;5039290;28;20468;-55
2022/09/29 08:41:57;;;;;;;16.80;9.73;;;11.80;99.90;;;;;;5039406;28;20432;-56
2022/09/29 08:44:33;;;;;;;17.00;8.53;;;11.80;99.90;;;;;;5039419;28;20912;-51
2022/09/29 08:47:03;;;;;;;19.80;7.47;;;11.90;99.90;;;;;;5039499;28;20431;-56
2022/09/29 08:49:37;;;;;;;17.20;9.30;;;12.10;99.90;;;;;;5039312;28;20450;-52
2022/09/29 08:52:09;;;;;;;14.77;8.60;;;12.10;99.90;;;;;;5039212;28;20475;-57
2022/09/29 08:54:40;;;;;;;17.03;9.50;;;12.40;99.90;;;;;;5039332;28;20429;-58
2022/09/29 08:57:15;;;;;;;14.00;8.37;;;12.50;99.90;;;;;;5038771;28;20995;-56
2022/09/29 08:59:44;;;;;;;15.80;8.30;;;12.80;99.90;;;;;;5038986;28;20459;-59
2022/09/29 09:02:40;;;;;;;12.90;8.57;;;12.80;99.90;;;;;;5039021;28;20448;-56
2022/09/29 09:05:24;;;;;;;14.57;7.73;;;12.80;99.90;;;;;;5039164;28;20428;-57
2022/09/29 09:08:01;;;;;;;13.27;8.00;;;12.90;99.90;;;;;;5038826;28;20460;-56
2022/09/29 09:10:38;;;;;;;17.03;8.63;;;13.10;99.90;;;;;;5038848;28;20740;-55
2022/09/29 09:13:31;;;;;;;14.07;8.47;;;13.20;99.90;;;;;;5039076;28;20437;-50
2022/09/29 09:16:17;;;;;;;13.97;7.77;;;13.40;99.90;;;;;;5031464;28;20840;-58
2022/09/29 09:19:03;;;;;;;13.43;7.30;;;13.50;99.90;;;;;;5038115;28;20490;-57
2022/09/29 09:21:40;;;;;;;9.80;6.20;;;13.60;99.90;;;;;;5038446;28;20471;-58
2022/09/29 09:24:17;;;;;;;10.50;6.60;;;13.70;99.90;;;;;;5038864;28;20440;-60
2022/09/29 09:26:46;;;;;;;9.83;6.90;;;13.80;99.90;;;;;;5038297;28;20474;-53
2022/09/29 09:29:22;;;;;;;10.30;5.70;;;13.90;99.90;;;;;;5037790;28;20448;-54
2022/09/29 09:31:56;;;;;;;12.67;6.70;;;14.00;99.90;;;;;;5037964;28;20475;-56
2022/09/29 09:34:28;;;;;;;10.47;6.80;;;14.20;99.90;;;;;;5037995;28;20448;-54
2022/09/29 09:37:00;;;;;;;13.57;7.50;;;14.40;99.90;;;;;;5037779;28;20484;-58
2022/09/29 09:39:32;;;;;;;14.13;7.10;;;14.50;99.90;;;;;;5037698;28;20443;-53
2022/09/29 09:42:03;;;;;;;8.37;6.10;;;14.60;99.90;;;;;;5036879;28;20491;-59
2022/09/29 09:44:49;;;;;;;12.83;6.80;;;14.90;99.90;;;;;;5037182;28;20445;-54
2022/09/29 09:47:25;;;;;;;11.50;7.00;;;15.20;99.90;;;;;;5036869;28;20429;-60
2022/09/29 09:49:57;;;;;;;12.00;7.17;;;15.50;99.90;;;;;;5037198;28;20439;-58
2022/09/29 09:52:31;;;;;;;6.20;4.93;;;15.90;99.90;;;;;;5036795;28;20514;-57
2022/09/29 09:55:02;;;;;;;11.53;7.77;;;16.50;99.90;;;;;;5036317;28;20412;-54
2022/09/29 09:57:48;;;;;;;8.90;5.83;;;16.90;99.90;;;;;;5036473;28;20468;-59
2022/09/29 10:00:19;;;;;;;6.10;5.17;;;17.10;99.90;;;;;;5036356;28;20464;-59
2022/09/29 10:02:48;;;;;;;8.50;5.83;;;17.50;99.90;;;;;;5035886;28;20464;-56
2022/09/29 10:05:17;;;;;;;7.67;4.67;;;17.80;99.90;;;;;;5036210;28;20555;-58
2022/09/29 10:07:45;;;;;;;7.87;5.10;;;17.90;99.90;;;;;;5036065;28;20812;-57
2022/09/29 10:10:18;;;;;;;8.70;5.60;;;18.00;99.90;;;;;;5035978;28;20476;-59
2022/09/29 10:12:48;;;;;;;10.00;5.57;;;18.30;99.90;;;;;;5035945;28;20456;-59
2022/09/29 10:15:34;;;;;;;7.80;4.90;;;18.60;99.90;;;;;;5036418;28;20529;-60
2022/09/29 10:18:13;;;;;;;6.60;5.03;;;18.80;99.90;;;;;;5035578;28;20468;-58
2022/09/29 10:20:41;;;;;;;6.90;4.50;;;19.20;99.90;;;;;;5035354;28;21118;-59
2022/09/29 10:23:29;;;;;;;9.90;5.90;;;19.40;99.90;;;;;;5035624;28;20980;-53
2022/09/29 10:26:14;;;;;;;7.30;5.40;;;19.30;99.90;;;;;;5035310;28;20436;-59
2022/09/29 10:28:45;;;;;;;8.80;5.73;;;19.00;99.90;;;;;;5035736;28;20441;-57
2022/09/29 10:31:21;;;;;;;5.90;4.83;;;18.70;99.90;;;;;;5035488;28;20440;-60
2022/09/29 10:33:53;;;;;;;12.23;5.70;;;18.60;99.90;;;;;;5035886;28;20458;-57
2022/09/29 10:36:20;;;;;;;8.13;5.40;;;18.60;99.90;;;;;;5035895;28;20440;-58
2022/09/29 10:38:50;;;;;;;8.17;6.70;;;18.70;99.90;;;;;;5035648;28;20499;-59
2022/09/29 10:41:18;;;;;;;6.37;5.10;;;18.80;99.90;;;;;;5037231;28;20452;-57
2022/09/29 10:43:48;;;;;;;10.47;5.53;;;18.80;99.90;;;;;;5038954;28;20471;-55
2022/09/29 10:46:37;;;;;;;6.70;5.03;;;18.70;99.90;;;;;;5039162;28;20444;-56
2022/09/29 10:49:13;;;;;;;8.37;6.43;;;18.50;99.90;;;;;;5038709;28;20475;-55
2022/09/29 10:51:40;;;;;;;5.67;4.13;;;18.20;99.90;;;;;;5039250;28;20444;-55
2022/09/29 10:54:09;;;;;;;8.63;4.60;;;17.80;99.90;;;;;;5040376;28;20460;-57
2022/09/29 10:56:36;;;;;;;6.57;4.70;;;17.70;99.90;;;;;;5040308;28;20506;-59
2022/09/29 10:59:03;;;;;;;7.57;5.30;;;17.70;99.90;;;;;;5040131;28;20487;-61
2022/09/29 11:01:34;;;;;;;5.40;4.20;;;17.70;99.90;;;;;;5040751;28;20472;-60
2022/09/29 11:04:04;;;;;;;7.77;5.03;;;17.50;99.90;;;;;;5040777;28;20464;-57
2022/09/29 11:06:34;;;;;;;11.80;6.80;;;17.30;99.90;;;;;;5040868;28;20797;-62
2022/09/29 11:09:03;;;;;;;6.57;5.80;;;17.20;99.90;;;;;;5040900;28;20905;-58
2022/09/29 11:11:32;;;;;;;6.90;5.33;;;16.90;99.90;;;;;;5040712;28;20490;-59
2022/09/29 11:13:59;;;;;;;5.80;4.30;;;16.70;99.90;;;;;;5040765;28;20448;-58
2022/09/29 11:16:32;;;;;;;6.47;4.53;;;16.50;99.90;;;;;;5040772;28;20486;-55
2022/09/29 11:19:05;;;;;;;5.97;5.00;;;16.50;99.90;;;;;;5040907;28;20808;-56
2022/09/29 11:22:09;;;;;;;7.30;4.40;;;16.30;99.90;;;;;;5039606;28;20433;-64
2022/09/29 11:25:09;;;;;;;6.10;4.80;;;16.20;99.90;;;;;;5039529;28;20523;-59
2022/09/29 11:27:50;;;;;;;6.50;4.60;;;16.00;99.90;;;;;;5039993;28;20444;-54
2022/09/29 11:30:20;;;;;;;5.47;4.40;;;15.80;99.90;;;;;;5040737;28;20450;-59
2022/09/29 11:33:07;;;;;;;6.63;4.03;;;15.80;99.90;;;;;;5039235;28;20455;-58
2022/09/29 11:35:45;;;;;;;4.53;3.60;;;15.80;99.90;;;;;;5039070;28;20459;-55
2022/09/29 11:38:25;;;;;;;6.80;4.20;;;15.80;99.90;;;;;;5039282;28;20472;-56
2022/09/29 11:41:02;;;;;;;5.33;3.97;;;15.90;99.90;;;;;;5039027;28;20428;-51
2022/09/29 11:43:43;;;;;;;6.67;4.47;;;15.90;99.90;;;;;;5039198;28;20436;-52
2022/09/29 11:46:22;;;;;;;9.20;5.00;;;15.90;99.90;;;;;;5038721;28;20519;-54
2022/09/29 11:49:10;;;;;;;5.50;4.10;;;15.80;99.90;;;;;;5038482;28;20428;-49
2022/09/29 11:51:51;;;;;;;6.10;3.70;;;15.70;99.90;;;;;;5038574;28;20511;-54
2022/09/29 11:54:34;;;;;;;8.40;5.20;;;15.60;99.90;;;;;;5038346;28;20452;-61
2022/09/29 11:57:09;;;;;;;5.00;3.40;;;15.50;99.90;;;;;;5039816;28;20468;-57
2022/09/29 12:00:01;;;;;;;6.13;4.60;;;15.40;99.90;;;;;;5040302;28;20436;-61
2022/09/29 12:03:15;;;;;;;6.93;4.40;;;15.40;99.90;;;;;;5040431;28;20508;-59
2022/09/29 12:05:55;;;;;;;4.90;4.40;;;15.30;99.90;;;;;;5038446;28;20452;-56
2022/09/29 12:08:34;;;;;;;4.57;3.53;;;15.20;99.90;;;;;;5039240;28;20542;-57
2022/09/29 12:11:05;;;;;;;6.30;4.07;;;15.20;99.90;;;;;;5039000;28;20456;-59
2022/09/29 12:13:42;;;;;;;4.80;3.50;;;15.10;99.90;;;;;;5038669;28;20548;-60
2022/09/29 12:16:14;;;;;;;4.33;3.30;;;15.00;99.90;;;;;;5038719;28;20432;-57
2022/09/29 12:18:48;;;;;;;4.60;3.63;;;15.00;99.90;;;;;;5038104;28;20492;-55
2022/09/29 12:21:27;;;;;;;4.30;3.33;;;14.90;99.90;;;;;;5038203;28;20467;-50
2022/09/29 12:23:53;;;;;;;4.37;3.50;;;14.90;99.90;;;;;;5037916;28;20818;-55
2022/09/29 12:26:23;;;;;;;8.73;3.70;;;14.80;99.90;;;;;;5038463;28;20459;-57
2022/09/29 12:28:55;;;;;;;3.80;3.10;;;14.90;99.90;;;;;;5038755;28;20444;-58
2022/09/29 12:31:29;;;;;;;4.10;2.77;;;15.00;99.90;;;;;;5037677;28;20877;-57
2022/09/29 12:34:01;;;;;;;4.13;3.27;;;15.10;99.90;;;;;;5038459;28;20516;-58
2022/09/29 12:36:44;;;;;;;3.60;3.20;;;15.30;99.90;;;;;;5038038;28;20486;-56
2022/09/29 12:39:23;;;;;;;7.43;4.40;;;15.60;99.90;;;;;;5037824;28;20461;-58
2022/09/29 12:41:55;;;;;;;5.17;3.93;;;15.90;99.90;;;;;;5037504;28;20514;-58
2022/09/29 12:44:30;;;;;;;6.33;4.20;;;15.90;99.90;;;;;;5037852;28;20475;-56
2022/09/29 12:47:04;;;;;;;6.10;3.40;;;16.10;99.90;;;;;;5037561;28;20475;-55
2022/09/29 12:49:39;;;;;;;4.30;3.00;;;16.10;99.90;;;;;;5037704;28;20428;-58
2022/09/29 12:52:17;;;;;;;22.20;3.60;;;16.10;99.90;;;;;;5037046;28;20472;-59
2022/09/29 12:54:50;;;;;;;3.27;2.70;;;16.20;99.90;;;;;;5037713;28;20433;-56
2022/09/29 12:57:22;;;;;;;4.10;2.93;;;16.10;99.90;;;;;;5037012;28;20476;-56
2022/09/29 12:59:54;;;;;;;3.43;3.00;;;16.10;99.90;;;;;;5037074;28;20509;-58
2022/09/29 13:02:53;;;;;;;3.70;2.47;;;16.00;99.90;;;;;;5036783;28;20943;-51
2022/09/29 13:05:48;;;;;;;3.93;2.97;;;16.10;99.90;;;;;;5037087;28;20881;-55
2022/09/29 13:08:39;;;;;;;4.13;3.03;;;16.10;99.90;;;;;;5036868;28;20468;-54
2022/09/29 13:11:21;;;;;;;3.00;2.60;;;16.00;99.90;;;;;;5037371;28;20437;-56
2022/09/29 13:14:05;;;;;;;4.53;2.77;;;16.20;99.90;;;;;;5036712;28;20483;-58
2022/09/29 13:16:58;;;;;;;3.40;2.97;;;16.60;99.90;;;;;;5036587;28;20440;-58